Time;durP1;ratioP1;P1;durP2;ratioP2;P2;SDS_P1;SDS_P2;PMS_P1;PMS_P2;Temp;Humidity;BMP_temperature;BMP_pressure;BME280_temperature;BME280_humidity;BME280_pressure;Samples;Min_cycle;Max_cycle;Signal;HPM_P1;HPM_P2
2022/05/08 00:02:25;;;;;;;16.90;15.40;;;11.20;1.00;;;;;;4995682;28;20200;-55
2022/05/08 00:04:52;;;;;;;15.77;14.47;;;11.20;99.90;;;;;;4991189;28;20203;-58
2022/05/08 00:07:19;;;;;;;16.20;14.90;;;11.20;99.90;;;;;;4991555;28;20211;-55
2022/05/08 00:09:46;;;;;;;16.07;14.57;;;11.10;99.90;;;;;;4990867;28;20506;-54
2022/05/08 00:12:12;;;;;;;15.23;13.90;;;11.10;1.00;;;;;;4990856;28;20439;-54
2022/05/08 00:14:39;;;;;;;15.40;14.00;;;11.00;1.00;;;;;;4992798;28;20798;-55
2022/05/08 00:17:05;;;;;;;15.27;13.97;;;11.00;1.00;;;;;;4990255;28;20514;-57
2022/05/08 00:19:31;;;;;;;16.73;15.07;;;11.00;1.00;;;;;;4988751;28;20443;-53
2022/05/08 00:21:57;;;;;;;15.70;14.33;;;10.90;1.00;;;;;;4991813;28;20446;-57
2022/05/08 00:24:22;;;;;;;16.67;15.17;;;10.90;1.00;;;;;;4988987;28;20274;-53
2022/05/08 00:26:48;;;;;;;15.70;14.30;;;10.80;57.20;;;;;;4990914;28;20207;-55
2022/05/08 00:29:15;;;;;;;15.13;13.73;;;10.80;99.90;;;;;;4987549;28;20467;-55
2022/05/08 00:31:41;;;;;;;15.10;13.70;;;10.70;99.90;;;;;;4973838;28;20718;-53
2022/05/08 00:34:06;;;;;;;15.23;13.93;;;10.70;99.90;;;;;;4985795;28;20523;-55
2022/05/08 00:36:32;;;;;;;15.77;14.37;;;10.70;99.90;;;;;;4978645;28;20944;-57
2022/05/08 00:38:57;;;;;;;15.17;13.87;;;10.60;99.90;;;;;;4990424;28;20567;-57
2022/05/08 00:41:23;;;;;;;16.43;14.87;;;10.50;99.90;;;;;;4991225;28;20258;-58
2022/05/08 00:43:48;;;;;;;15.63;14.13;;;10.50;1.00;;;;;;5003900;28;20197;-56
2022/05/08 00:46:16;;;;;;;14.87;13.47;;;10.50;1.00;;;;;;4989950;28;20238;-55
2022/05/08 00:48:42;;;;;;;15.13;13.73;;;10.50;1.00;;;;;;4989497;28;20184;-56
2022/05/08 00:51:09;;;;;;;15.77;14.20;;;10.50;1.00;;;;;;4990216;28;20548;-56
2022/05/08 00:53:44;;;;;;;15.27;13.87;;;10.40;1.00;;;;;;4975495;28;20512;-55
2022/05/08 00:56:11;;;;;;;16.13;14.63;;;10.40;1.00;;;;;;4988866;28;20475;-54
2022/05/08 00:58:38;;;;;;;16.03;14.53;;;10.40;1.00;;;;;;4981817;28;20474;-59
2022/05/08 01:01:05;;;;;;;15.30;14.00;;;10.40;1.00;;;;;;4989444;28;20461;-57
2022/05/08 01:03:31;;;;;;;15.40;13.90;;;10.30;1.00;;;;;;4990081;28;20463;-56
2022/05/08 01:05:57;;;;;;;16.60;14.50;;;10.30;1.00;;;;;;4989574;28;20530;-54
2022/05/08 01:08:25;;;;;;;15.53;14.23;;;10.30;1.00;;;;;;4987808;28;21083;-53
2022/05/08 01:10:53;;;;;;;16.60;15.10;;;10.30;1.00;;;;;;4990771;28;20949;-56
2022/05/08 01:13:19;;;;;;;15.57;14.10;;;10.20;1.00;;;;;;4989432;28;20446;-57
2022/05/08 01:15:46;;;;;;;16.00;14.53;;;10.20;1.00;;;;;;4987256;28;20744;-52
2022/05/08 01:18:13;;;;;;;15.37;13.93;;;10.20;1.00;;;;;;4980637;28;20489;-53
2022/05/08 01:20:44;;;;;;;15.80;14.40;;;10.20;1.00;;;;;;4991508;28;20434;-52
2022/05/08 01:23:15;;;;;;;16.40;14.73;;;10.20;1.00;;;;;;4990182;28;20446;-54
2022/05/08 01:25:56;;;;;;;15.43;14.03;;;10.10;1.00;;;;;;4987921;28;20444;-56
2022/05/08 01:28:23;;;;;;;14.77;13.47;;;10.10;1.00;;;;;;4977118;28;20843;-52
2022/05/08 01:30:51;;;;;;;15.40;14.00;;;10.10;1.00;;;;;;4985699;28;20514;-56
2022/05/08 01:33:18;;;;;;;16.30;14.70;;;10.00;1.00;;;;;;4989240;28;20439;-55
2022/05/08 01:35:44;;;;;;;15.93;14.53;;;10.00;1.00;;;;;;4990597;28;20427;-53
2022/05/08 01:38:12;;;;;;;15.57;14.17;;;10.00;1.00;;;;;;4989137;28;20428;-55
2022/05/08 01:40:37;;;;;;;16.30;14.70;;;10.00;1.00;;;;;;4974125;28;20463;-51
2022/05/08 01:43:03;;;;;;;16.13;14.73;;;9.90;1.00;;;;;;4978453;28;20903;-57
2022/05/08 01:45:30;;;;;;;15.97;14.57;;;9.90;1.00;;;;;;4986802;28;20267;-53
2022/05/08 01:50:40;;;;;;;16.70;15.03;;;9.80;1.00;;;;;;4987970;28;20466;-55
2022/05/08 01:53:06;;;;;;;16.37;14.70;;;9.80;1.00;;;;;;4989423;28;21184;-54
2022/05/08 01:55:32;;;;;;;16.57;15.00;;;9.80;1.00;;;;;;4987777;28;20220;-55
2022/05/08 01:57:58;;;;;;;15.93;14.43;;;9.80;1.00;;;;;;4988419;28;20258;-57
2022/05/08 02:00:25;;;;;;;15.57;14.17;;;9.80;1.00;;;;;;4988257;28;20192;-58
2022/05/08 02:02:52;;;;;;;15.70;14.27;;;9.70;1.00;;;;;;4989912;28;20810;-56
2022/05/08 02:05:19;;;;;;;16.70;15.10;;;9.60;1.00;;;;;;4985713;28;20442;-54
2022/05/08 02:07:46;;;;;;;15.43;13.87;;;9.60;1.00;;;;;;4988191;28;20775;-54
2022/05/08 02:10:16;;;;;;;17.10;15.30;;;9.60;1.00;;;;;;4990346;28;20981;-56
2022/05/08 02:12:42;;;;;;;16.90;15.30;;;9.60;1.00;;;;;;4997779;28;20975;-56
2022/05/08 02:15:10;;;;;;;17.00;15.40;;;9.60;1.00;;;;;;4981502;28;21184;-55
2022/05/08 02:17:36;;;;;;;16.60;15.10;;;9.50;1.00;;;;;;4986206;28;20458;-55
2022/05/08 02:20:04;;;;;;;16.97;15.30;;;9.50;1.00;;;;;;4980957;28;20982;-51
2022/05/08 02:22:29;;;;;;;17.20;15.70;;;9.50;1.00;;;;;;4973390;28;21178;-56
2022/05/08 02:24:55;;;;;;;16.83;15.17;;;9.50;1.00;;;;;;4977949;28;20472;-54
2022/05/08 02:27:20;;;;;;;16.83;15.23;;;9.50;1.00;;;;;;4970608;28;20185;-57
2022/05/08 02:29:51;;;;;;;17.13;15.47;;;9.50;1.00;;;;;;4975196;28;20200;-55
2022/05/08 02:32:17;;;;;;;16.27;14.77;;;9.40;1.00;;;;;;4989488;28;20176;-54
2022/05/08 02:34:43;;;;;;;16.30;14.80;;;9.40;1.00;;;;;;4989870;28;20930;-54
2022/05/08 02:37:08;;;;;;;17.20;15.60;;;9.30;1.00;;;;;;4989322;28;20474;-57
2022/05/08 02:39:34;;;;;;;17.13;15.43;;;9.20;1.00;;;;;;4989167;28;20450;-54
2022/05/08 02:41:59;;;;;;;17.23;15.57;;;9.20;1.00;;;;;;4988789;28;20223;-56
2022/05/08 02:44:25;;;;;;;16.90;15.40;;;9.20;1.00;;;;;;4989339;28;20216;-56
2022/05/08 02:46:51;;;;;;;17.17;15.67;;;9.20;1.00;;;;;;4972696;28;20181;-56
2022/05/08 02:49:16;;;;;;;16.30;14.80;;;9.20;1.00;;;;;;4988781;28;20314;-49
2022/05/08 02:51:42;;;;;;;18.33;16.63;;;9.10;1.00;;;;;;4988032;28;20615;-54
2022/05/08 02:54:08;;;;;;;17.47;15.77;;;9.10;1.00;;;;;;4978663;28;20191;-53
2022/05/08 02:59:17;;;;;;;17.30;15.70;;;9.10;10.30;;;;;;4989387;28;20561;-56
2022/05/08 03:01:43;;;;;;;16.53;14.93;;;9.10;8.70;;;;;;4987281;28;20501;-53
2022/05/08 03:04:08;;;;;;;18.13;15.63;;;9.10;12.10;;;;;;4988604;28;20192;-52
2022/05/08 03:06:34;;;;;;;17.30;15.70;;;9.00;17.00;;;;;;4988993;28;20207;-55
2022/05/08 03:09:00;;;;;;;17.13;15.50;;;9.00;20.80;;;;;;4989312;28;20570;-56
2022/05/08 03:11:25;;;;;;;17.53;15.97;;;9.00;24.10;;;;;;4986674;28;20193;-54
2022/05/08 03:13:51;;;;;;;17.67;16.07;;;9.00;24.90;;;;;;4989723;28;20192;-53
2022/05/08 03:16:17;;;;;;;18.23;16.43;;;8.90;24.20;;;;;;4987873;28;20196;-55
2022/05/08 03:18:45;;;;;;;17.60;15.90;;;8.90;27.00;;;;;;4988185;28;20448;-53
2022/05/08 03:21:13;;;;;;;18.00;16.40;;;8.90;35.20;;;;;;4988122;28;20176;-56
2022/05/08 03:23:39;;;;;;;17.63;15.97;;;8.90;38.20;;;;;;4987757;28;21331;-57
2022/05/08 03:26:05;;;;;;;17.03;15.23;;;8.90;40.20;;;;;;4987765;28;20462;-58
2022/05/08 03:28:32;;;;;;;17.50;15.80;;;8.90;44.00;;;;;;4988399;28;20427;-57
2022/05/08 03:30:59;;;;;;;17.23;15.57;;;8.90;49.40;;;;;;4987606;28;20479;-56
2022/05/08 03:33:28;;;;;;;18.30;16.60;;;8.90;54.30;;;;;;4987466;28;20440;-53
2022/05/08 03:35:53;;;;;;;18.40;16.70;;;8.80;59.60;;;;;;4987908;28;20438;-54
2022/05/08 03:38:19;;;;;;;17.50;15.80;;;8.80;63.10;;;;;;4985676;28;20518;-52
2022/05/08 03:40:44;;;;;;;18.23;16.53;;;8.80;68.60;;;;;;4988520;28;20196;-51
2022/05/08 03:43:10;;;;;;;17.60;15.90;;;8.80;71.40;;;;;;4987090;28;20193;-57
2022/05/08 03:45:36;;;;;;;17.80;16.27;;;8.80;71.80;;;;;;4983508;28;20576;-56
2022/05/08 03:48:02;;;;;;;17.47;15.90;;;8.70;73.40;;;;;;4987961;28;20219;-58
2022/05/08 03:50:29;;;;;;;17.73;16.07;;;8.70;78.40;;;;;;4988653;28;20590;-56
2022/05/08 03:52:55;;;;;;;17.30;15.70;;;8.70;76.00;;;;;;4987387;28;20452;-56
2022/05/08 03:55:20;;;;;;;19.10;17.10;;;8.70;78.80;;;;;;4986202;28;20475;-55
2022/05/08 03:57:46;;;;;;;17.77;16.00;;;8.70;79.20;;;;;;4991271;28;20436;-54
2022/05/08 04:00:13;;;;;;;18.27;16.57;;;8.80;77.60;;;;;;4984176;28;20296;-51
2022/05/08 04:02:39;;;;;;;18.23;16.43;;;8.80;81.90;;;;;;4981501;28;20535;-54
2022/05/08 04:05:06;;;;;;;18.07;16.37;;;8.80;77.20;;;;;;4991836;28;20490;-52
2022/05/08 04:07:32;;;;;;;16.77;15.27;;;8.90;76.60;;;;;;4990576;28;20470;-57
2022/05/08 04:09:57;;;;;;;17.77;16.13;;;8.90;71.00;;;;;;4989437;28;20473;-55
2022/05/08 04:12:24;;;;;;;17.70;16.00;;;8.90;68.90;;;;;;4989798;28;20812;-57
2022/05/08 04:14:50;;;;;;;17.37;15.67;;;8.90;66.90;;;;;;4987291;28;20448;-56
2022/05/08 04:17:16;;;;;;;16.87;15.27;;;8.90;68.00;;;;;;4984368;28;20961;-52
2022/05/08 04:19:42;;;;;;;15.93;14.40;;;8.90;66.80;;;;;;4988611;28;20195;-56
2022/05/08 04:24:52;;;;;;;16.53;14.87;;;9.00;62.50;;;;;;4992277;28;20414;-54
2022/05/08 04:27:18;;;;;;;17.27;15.57;;;9.10;63.00;;;;;;4988191;28;20439;-57
2022/05/08 04:29:44;;;;;;;17.03;15.33;;;9.10;59.70;;;;;;4990641;28;20207;-55
2022/05/08 04:32:09;;;;;;;15.73;14.23;;;9.20;55.90;;;;;;4989385;28;20450;-56
2022/05/08 04:34:35;;;;;;;15.90;14.50;;;9.20;52.20;;;;;;4981787;28;21055;-56
2022/05/08 04:37:00;;;;;;;16.23;14.77;;;9.30;49.40;;;;;;4976896;28;20208;-53
2022/05/08 04:39:26;;;;;;;14.80;13.50;;;9.30;99.90;;;;;;4984866;28;20279;-53
2022/05/08 04:41:52;;;;;;;16.23;14.43;;;9.20;99.90;;;;;;4991452;28;20188;-56
2022/05/08 04:44:18;;;;;;;15.57;14.07;;;9.30;99.90;;;;;;4981827;28;20276;-54
2022/05/08 04:46:43;;;;;;;15.63;14.17;;;9.30;99.90;;;;;;4972670;28;20417;-55
2022/05/08 04:49:10;;;;;;;15.03;13.63;;;9.40;99.90;;;;;;4982203;28;20502;-54
2022/05/08 04:51:36;;;;;;;14.30;13.00;;;9.40;99.90;;;;;;4990322;28;20239;-55
2022/05/08 04:54:01;;;;;;;14.90;13.40;;;9.50;99.90;;;;;;4990592;28;20463;-54
2022/05/08 04:56:27;;;;;;;15.63;14.20;;;9.50;99.90;;;;;;4988405;28;20890;-54
2022/05/08 04:58:52;;;;;;;15.50;14.00;;;9.60;99.90;;;;;;4989798;28;20538;-54
2022/05/08 05:01:18;;;;;;;15.33;13.93;;;9.60;99.90;;;;;;4989115;28;20714;-56
2022/05/08 05:03:43;;;;;;;15.97;14.47;;;9.60;99.90;;;;;;4991763;28;20195;-57
2022/05/08 05:06:09;;;;;;;15.00;13.60;;;9.70;99.90;;;;;;4990623;28;20220;-53
2022/05/08 05:08:34;;;;;;;15.40;13.93;;;9.70;99.90;;;;;;4986116;28;20185;-51
2022/05/08 05:11:00;;;;;;;16.63;13.13;;;9.70;99.90;;;;;;4987525;28;20740;-53
2022/05/08 05:13:25;;;;;;;15.47;14.07;;;9.80;99.90;;;;;;4987428;28;20193;-55
2022/05/08 05:15:54;;;;;;;14.87;13.40;;;9.90;99.90;;;;;;4989619;28;20748;-54
2022/05/08 05:18:19;;;;;;;13.87;12.57;;;10.10;99.90;;;;;;4988078;28;20291;-52
2022/05/08 05:20:45;;;;;;;15.17;13.73;;;10.20;99.90;;;;;;4988251;28;20550;-52
2022/05/08 05:23:12;;;;;;;15.53;14.13;;;10.40;99.90;;;;;;4990684;28;20310;-54
2022/05/08 05:25:38;;;;;;;15.10;13.60;;;10.40;99.90;;;;;;4991424;28;20837;-55
2022/05/08 05:28:04;;;;;;;14.57;13.27;;;10.50;99.90;;;;;;4988322;28;20451;-55
2022/05/08 05:30:29;;;;;;;14.20;12.90;;;10.50;99.90;;;;;;4988612;28;20470;-56
2022/05/08 05:32:55;;;;;;;14.03;12.73;;;10.60;99.90;;;;;;4991452;28;20191;-55
2022/05/08 05:35:21;;;;;;;14.17;12.87;;;10.80;99.90;;;;;;4984577;28;20254;-54
2022/05/08 05:37:46;;;;;;;13.97;12.67;;;11.00;99.90;;;;;;4990182;28;20177;-56
2022/05/08 05:40:12;;;;;;;13.10;12.00;;;11.10;99.90;;;;;;4982469;28;20193;-56
2022/05/08 05:42:38;;;;;;;13.33;12.03;;;11.30;99.90;;;;;;4983360;28;20196;-56
2022/05/08 05:45:04;;;;;;;13.27;12.17;;;11.40;99.90;;;;;;4985534;28;20196;-54
2022/05/08 05:50:14;;;;;;;13.70;12.43;;;11.60;99.90;;;;;;4989218;28;20466;-57
2022/05/08 05:52:39;;;;;;;12.63;11.53;;;11.90;99.90;;;;;;4978580;28;20448;-55
2022/05/08 05:55:06;;;;;;;13.10;11.90;;;12.10;99.90;;;;;;4986510;28;21128;-52
2022/05/08 05:57:33;;;;;;;14.83;13.33;;;12.20;99.90;;;;;;4986817;28;20299;-55
2022/05/08 05:59:58;;;;;;;13.40;12.20;;;12.50;99.90;;;;;;4988013;28;20518;-55
2022/05/08 06:02:24;;;;;;;12.70;11.60;;;12.60;99.90;;;;;;4989123;28;20447;-58
2022/05/08 06:04:51;;;;;;;14.27;12.93;;;12.80;99.90;;;;;;4995106;28;20674;-56
2022/05/08 06:07:16;;;;;;;13.43;12.27;;;13.00;99.90;;;;;;4982309;28;20447;-53
2022/05/08 06:09:42;;;;;;;13.23;12.10;;;13.20;99.90;;;;;;4987529;28;20226;-58
2022/05/08 06:12:08;;;;;;;14.90;13.50;;;13.40;99.90;;;;;;4984925;28;20541;-56
2022/05/08 06:14:33;;;;;;;14.20;12.90;;;13.60;99.90;;;;;;4987896;28;20188;-55
2022/05/08 06:16:59;;;;;;;13.37;12.27;;;13.60;99.90;;;;;;4985068;28;21495;-55
2022/05/08 06:19:24;;;;;;;14.57;13.27;;;13.80;99.90;;;;;;4976208;28;20192;-55
2022/05/08 06:21:50;;;;;;;13.37;12.27;;;13.90;99.90;;;;;;4986291;28;20690;-57
2022/05/08 06:24:16;;;;;;;13.87;12.77;;;14.00;99.90;;;;;;4979592;28;20191;-55
2022/05/08 06:26:41;;;;;;;14.57;13.10;;;14.00;99.90;;;;;;4989523;28;20560;-55
2022/05/08 06:29:07;;;;;;;13.43;12.23;;;14.10;99.90;;;;;;4988440;28;20196;-55
2022/05/08 06:31:32;;;;;;;13.90;12.70;;;14.20;99.90;;;;;;4977591;28;20184;-56
2022/05/08 06:33:58;;;;;;;14.97;13.70;;;14.10;99.90;;;;;;4987600;28;20650;-58
2022/05/08 06:36:26;;;;;;;14.70;13.40;;;14.10;99.90;;;;;;4987713;28;20232;-54
2022/05/08 06:38:51;;;;;;;15.83;14.47;;;14.00;99.90;;;;;;4989039;28;20299;-55
2022/05/08 06:41:17;;;;;;;14.63;13.43;;;14.10;99.90;;;;;;4985234;28;20566;-57
2022/05/08 06:43:44;;;;;;;15.17;13.77;;;14.10;99.90;;;;;;4985122;28;20497;-53
2022/05/08 06:46:11;;;;;;;14.33;12.70;;;14.20;99.90;;;;;;4987108;28;20272;-57
2022/05/08 06:48:38;;;;;;;15.27;14.07;;;14.30;99.90;;;;;;4986418;28;20447;-54
2022/05/08 06:51:04;;;;;;;15.23;13.93;;;14.40;99.90;;;;;;4986780;28;20494;-58
2022/05/08 06:53:31;;;;;;;14.93;13.73;;;14.50;99.90;;;;;;4983526;28;21151;-58
2022/05/08 06:55:57;;;;;;;15.10;13.90;;;14.50;99.90;;;;;;4982381;28;20603;-59
2022/05/08 06:58:24;;;;;;;15.70;14.40;;;14.60;99.90;;;;;;4987083;28;20545;-57
2022/05/08 07:03:36;;;;;;;14.37;13.27;;;14.80;99.90;;;;;;4985352;28;20988;-55
2022/05/08 07:06:02;;;;;;;15.13;13.83;;;14.90;99.90;;;;;;4987127;28;20435;-56
2022/05/08 07:08:27;;;;;;;15.43;14.03;;;15.00;99.90;;;;;;4979432;28;20442;-58
2022/05/08 07:10:53;;;;;;;16.33;14.90;;;15.10;99.90;;;;;;4979241;28;20466;-55
2022/05/08 07:13:23;;;;;;;16.30;14.90;;;15.20;99.90;;;;;;4985991;28;20502;-55
2022/05/08 07:15:49;;;;;;;16.60;15.00;;;15.40;99.90;;;;;;4982408;28;20632;-56
2022/05/08 07:18:14;;;;;;;15.67;14.37;;;15.50;99.90;;;;;;4988364;28;20430;-57
2022/05/08 07:20:40;;;;;;;15.67;14.30;;;15.70;99.90;;;;;;4972434;28;20192;-55
2022/05/08 07:23:05;;;;;;;17.50;16.00;;;15.80;99.90;;;;;;4987156;28;20218;-53
2022/05/08 07:25:31;;;;;;;17.27;15.60;;;16.00;99.90;;;;;;4987068;28;20179;-55
2022/05/08 07:27:56;;;;;;;17.73;15.87;;;16.10;99.90;;;;;;4989395;28;20183;-53
2022/05/08 07:30:22;;;;;;;15.27;13.80;;;16.20;99.90;;;;;;4991605;28;20213;-57
2022/05/08 07:32:48;;;;;;;16.73;15.20;;;16.30;99.90;;;;;;4990054;28;20240;-58
2022/05/08 07:37:59;;;;;;;17.10;15.60;;;16.60;99.90;;;;;;4984808;28;21351;-54
2022/05/08 07:40:26;;;;;;;16.53;15.03;;;16.70;99.90;;;;;;4986125;28;20469;-54
2022/05/08 07:42:52;;;;;;;15.40;14.10;;;16.90;99.90;;;;;;4985436;28;20217;-53
2022/05/08 07:45:17;;;;;;;16.17;14.77;;;17.00;99.90;;;;;;4985439;28;20530;-54
2022/05/08 07:47:43;;;;;;;15.97;14.50;;;17.20;99.90;;;;;;5004816;28;20745;-55
2022/05/08 07:50:09;;;;;;;14.80;13.60;;;17.20;99.90;;;;;;4988195;28;20212;-50
2022/05/08 07:52:40;;;;;;;14.83;13.37;;;17.30;99.90;;;;;;4983808;28;20606;-52
2022/05/08 07:55:07;;;;;;;14.37;13.17;;;17.40;99.90;;;;;;5004876;28;20263;-55
2022/05/08 07:57:33;;;;;;;13.43;12.33;;;17.60;99.90;;;;;;4988465;28;20447;-51
2022/05/08 07:59:59;;;;;;;14.77;13.53;;;17.70;99.90;;;;;;4990616;28;20446;-54
2022/05/08 08:02:25;;;;;;;15.70;14.40;;;17.70;99.90;;;;;;4990616;28;20527;-56
2022/05/08 08:04:51;;;;;;;15.37;14.17;;;17.90;99.90;;;;;;4991645;28;20180;-51
2022/05/08 08:07:17;;;;;;;15.57;14.37;;;18.10;99.90;;;;;;4992087;28;20425;-55
2022/05/08 08:09:43;;;;;;;15.40;14.10;;;18.30;99.80;;;;;;4986111;28;20466;-55
2022/05/08 08:12:09;;;;;;;13.93;12.83;;;18.40;99.30;;;;;;4979955;28;20193;-54
2022/05/08 08:14:34;;;;;;;16.07;14.67;;;18.50;99.30;;;;;;4981897;28;20280;-53
2022/05/08 08:17:00;;;;;;;14.70;13.50;;;18.60;99.10;;;;;;4980406;28;20525;-55
2022/05/08 08:19:25;;;;;;;15.87;14.57;;;18.70;98.50;;;;;;4987012;28;20184;-50
2022/05/08 08:21:52;;;;;;;14.70;13.40;;;18.90;97.40;;;;;;4975400;28;20260;-50
2022/05/08 08:24:17;;;;;;;14.63;13.43;;;19.10;96.90;;;;;;4982849;28;20192;-51
2022/05/08 08:26:43;;;;;;;15.07;13.87;;;19.30;96.70;;;;;;4992575;28;20415;-56
2022/05/08 08:29:08;;;;;;;16.60;15.30;;;19.40;96.50;;;;;;4985172;28;20887;-52
2022/05/08 08:31:34;;;;;;;15.53;14.17;;;19.60;95.90;;;;;;4978732;28;20725;-53
2022/05/08 08:34:00;;;;;;;16.30;15.10;;;19.70;94.90;;;;;;4973240;28;20647;-52
2022/05/08 08:36:25;;;;;;;15.73;14.40;;;19.60;95.40;;;;;;4992243;28;20188;-55
2022/05/08 08:38:51;;;;;;;15.70;14.40;;;19.70;95.40;;;;;;4990160;28;20196;-55
2022/05/08 08:41:21;;;;;;;15.80;14.43;;;19.80;96.20;;;;;;4983332;28;20188;-49
2022/05/08 08:49:22;;;;;;;15.60;14.20;;;20.50;94.00;;;;;;4974780;28;20441;-54
2022/05/08 08:51:49;;;;;;;15.10;13.90;;;20.70;93.20;;;;;;4991868;28;20523;-54
2022/05/08 08:54:19;;;;;;;16.97;15.67;;;20.70;93.00;;;;;;4977879;28;20919;-55
2022/05/08 08:56:45;;;;;;;15.80;14.50;;;20.80;93.20;;;;;;4988070;28;20486;-55
2022/05/08 08:59:10;;;;;;;16.47;15.20;;;20.80;93.50;;;;;;4981030;28;20437;-55
2022/05/08 09:01:41;;;;;;;17.10;15.80;;;20.80;93.50;;;;;;4985116;28;20662;-53
2022/05/08 09:04:09;;;;;;;17.17;15.97;;;21.00;93.40;;;;;;4999393;28;20211;-54
2022/05/08 09:06:43;;;;;;;16.90;15.37;;;21.20;93.10;;;;;;4990943;28;20473;-55
2022/05/08 09:09:26;;;;;;;17.47;16.00;;;21.20;92.30;;;;;;4991929;28;20473;-55
2022/05/08 09:11:54;;;;;;;17.23;15.93;;;21.50;92.30;;;;;;4990165;28;20955;-53
2022/05/08 09:14:33;;;;;;;16.43;14.97;;;21.80;91.60;;;;;;4985032;28;20445;-57
2022/05/08 09:17:00;;;;;;;16.23;15.03;;;22.30;90.60;;;;;;4992068;28;20429;-56
2022/05/08 09:19:37;;;;;;;17.67;16.37;;;22.60;89.40;;;;;;4992392;28;20435;-55
2022/05/08 09:22:07;;;;;;;16.20;15.00;;;22.60;85.40;;;;;;4991897;28;20429;-50
2022/05/08 09:24:35;;;;;;;16.30;14.90;;;22.60;84.60;;;;;;4993024;28;20442;-56
2022/05/08 09:27:28;;;;;;;15.03;13.90;;;22.60;85.80;;;;;;4983910;28;20434;-51
2022/05/08 09:30:07;;;;;;;16.70;15.40;;;22.80;83.30;;;;;;4988476;28;20519;-54
2022/05/08 09:32:38;;;;;;;17.10;15.50;;;23.20;80.00;;;;;;4977213;28;20899;-55
2022/05/08 09:35:04;;;;;;;15.70;14.60;;;23.20;77.90;;;;;;4976537;28;20797;-53
2022/05/08 09:37:30;;;;;;;15.70;14.60;;;23.70;76.70;;;;;;4991448;28;20466;-55
2022/05/08 09:40:16;;;;;;;14.60;13.60;;;23.80;74.90;;;;;;4990883;28;20474;-55
2022/05/08 09:42:41;;;;;;;15.83;14.73;;;24.20;74.60;;;;;;4990208;28;20288;-58
2022/05/08 09:45:08;;;;;;;15.17;14.17;;;24.90;72.90;;;;;;4992684;28;20513;-56
2022/05/08 09:47:43;;;;;;;13.40;12.50;;;25.70;69.00;;;;;;4991719;28;20195;-56
2022/05/08 09:50:10;;;;;;;12.67;11.60;;;26.50;66.60;;;;;;4990752;28;20459;-58
2022/05/08 09:52:40;;;;;;;14.80;13.90;;;27.40;58.00;;;;;;4986077;28;20427;-58
2022/05/08 09:55:12;;;;;;;16.03;14.93;;;28.20;54.10;;;;;;4984156;28;20621;-58
2022/05/08 09:57:39;;;;;;;12.87;12.07;;;28.50;49.90;;;;;;4978563;28;20785;-56
2022/05/08 10:00:06;;;;;;;11.73;10.83;;;29.00;48.30;;;;;;4973596;28;20451;-58
2022/05/08 10:02:32;;;;;;;12.30;11.40;;;29.70;44.50;;;;;;4976563;28;20443;-55
2022/05/08 10:04:58;;;;;;;12.23;11.53;;;30.10;41.80;;;;;;4990784;28;20926;-58
2022/05/08 10:07:24;;;;;;;11.13;10.53;;;30.50;40.80;;;;;;4990648;28;20271;-56
2022/05/08 10:15:34;;;;;;;11.90;11.03;;;31.20;37.60;;;;;;4990885;28;20462;-58
2022/05/08 10:18:18;;;;;;;13.43;12.63;;;31.60;36.50;;;;;;4990381;28;20427;-58
2022/05/08 10:21:04;;;;;;;14.10;13.00;;;31.60;36.30;;;;;;4990417;28;20415;-58
2022/05/08 10:23:45;;;;;;;14.13;13.23;;;31.60;37.80;;;;;;4988787;28;20422;-56
2022/05/08 10:26:19;;;;;;;12.70;12.00;;;31.80;35.70;;;;;;4989558;28;20432;-57
2022/05/08 10:29:03;;;;;;;12.73;11.93;;;31.20;35.30;;;;;;4985054;28;20431;-58
2022/05/08 10:31:41;;;;;;;14.10;13.10;;;30.50;36.60;;;;;;4971960;28;20476;-57
2022/05/08 10:34:08;;;;;;;15.33;14.10;;;30.40;36.90;;;;;;4979251;28;20478;-57
2022/05/08 10:36:34;;;;;;;14.67;13.57;;;29.80;37.80;;;;;;4989076;28;20427;-56
2022/05/08 10:39:38;;;;;;;15.90;14.80;;;29.20;38.90;;;;;;4983190;28;20957;-54
2022/05/08 10:42:04;;;;;;;15.50;14.50;;;28.60;40.90;;;;;;4989015;28;20179;-55
2022/05/08 10:44:37;;;;;;;15.00;13.90;;;28.40;41.90;;;;;;4989376;28;20941;-57
2022/05/08 10:47:33;;;;;;;14.10;13.10;;;28.20;42.30;;;;;;4984052;28;20941;-57
2022/05/08 10:50:09;;;;;;;13.13;12.30;;;28.30;41.50;;;;;;4988935;28;20466;-57
2022/05/08 10:52:39;;;;;;;12.50;11.70;;;28.70;40.70;;;;;;4979866;28;20445;-58
2022/05/08 10:55:12;;;;;;;13.60;12.67;;;29.30;39.90;;;;;;4974526;28;20494;-56
2022/05/08 10:57:39;;;;;;;12.67;11.87;;;29.50;39.80;;;;;;4973390;28;20532;-57
2022/05/08 11:00:10;;;;;;;12.97;12.20;;;29.60;39.60;;;;;;4981222;28;20447;-56
2022/05/08 11:02:38;;;;;;;13.43;12.60;;;29.40;39.90;;;;;;4994083;28;21104;-55
2022/05/08 11:05:05;;;;;;;13.60;12.70;;;29.10;39.10;;;;;;4995303;28;20423;-55
2022/05/08 11:07:30;;;;;;;13.30;12.50;;;28.60;39.80;;;;;;4994383;28;20439;-54
2022/05/08 11:09:56;;;;;;;12.40;11.60;;;27.90;41.30;;;;;;4994585;28;21027;-57
2022/05/08 11:12:21;;;;;;;12.07;11.27;;;27.70;41.90;;;;;;4993941;28;20192;-56
2022/05/08 11:14:47;;;;;;;13.43;12.40;;;28.40;41.40;;;;;;4989362;28;20196;-57
2022/05/08 11:17:16;;;;;;;11.23;10.53;;;29.00;40.30;;;;;;4983106;28;20226;-57
2022/05/08 11:19:57;;;;;;;10.67;9.90;;;29.60;38.50;;;;;;4991137;28;20231;-55
2022/05/08 11:22:22;;;;;;;10.67;10.07;;;30.70;37.30;;;;;;4985628;28;20441;-57
2022/05/08 11:24:49;;;;;;;10.40;9.80;;;31.70;33.50;;;;;;4991908;28;20439;-56
2022/05/08 11:27:15;;;;;;;10.77;10.07;;;31.60;32.90;;;;;;4993343;28;20188;-55
2022/05/08 11:29:50;;;;;;;11.17;10.37;;;30.90;34.00;;;;;;4992231;28;20521;-55
2022/05/08 11:38:01;;;;;;;9.57;9.07;;;28.30;38.30;;;;;;4989104;28;20945;-56
2022/05/08 11:40:28;;;;;;;9.73;9.13;;;27.30;39.10;;;;;;4993327;28;20470;-53
2022/05/08 11:42:53;;;;;;;11.03;10.33;;;26.60;42.20;;;;;;4995423;28;20419;-54
2022/05/08 11:45:19;;;;;;;11.50;10.77;;;26.40;43.30;;;;;;4989458;28;20434;-55
2022/05/08 11:47:53;;;;;;;12.10;11.10;;;26.30;45.30;;;;;;4992162;28;20194;-55
2022/05/08 11:50:18;;;;;;;11.90;11.10;;;26.10;45.80;;;;;;4981443;28;20542;-54
2022/05/08 11:52:44;;;;;;;11.20;10.50;;;26.00;46.00;;;;;;4985307;28;20426;-56
2022/05/08 11:55:09;;;;;;;13.77;12.67;;;25.70;46.70;;;;;;4982490;28;20229;-55
2022/05/08 11:57:43;;;;;;;12.93;11.93;;;25.10;47.50;;;;;;4985631;28;20219;-56
2022/05/08 12:00:12;;;;;;;12.20;11.30;;;24.80;48.00;;;;;;4982601;28;20182;-55
2022/05/08 12:02:48;;;;;;;12.50;11.60;;;24.70;48.70;;;;;;4993891;28;20457;-54
2022/05/08 12:05:18;;;;;;;11.40;10.63;;;24.90;48.20;;;;;;4984414;28;20486;-54
2022/05/08 12:07:45;;;;;;;10.60;9.80;;;25.90;48.00;;;;;;4992692;28;20520;-54
2022/05/08 12:10:12;;;;;;;9.20;8.60;;;26.70;44.80;;;;;;4993987;28;20687;-52
2022/05/08 12:12:39;;;;;;;10.77;10.07;;;27.30;43.30;;;;;;4994632;28;20430;-55
2022/05/08 12:15:08;;;;;;;11.13;10.43;;;27.30;42.30;;;;;;4980134;28;20431;-59
2022/05/08 12:17:54;;;;;;;11.03;10.23;;;26.80;42.20;;;;;;4993496;28;20556;-56
2022/05/08 12:20:26;;;;;;;10.40;9.77;;;26.40;43.70;;;;;;4990231;28;20441;-57
2022/05/08 12:23:03;;;;;;;9.83;9.23;;;25.90;44.50;;;;;;4987476;28;20465;-56
2022/05/08 12:25:30;;;;;;;9.60;9.00;;;25.90;45.40;;;;;;4990429;28;20424;-57
2022/05/08 12:27:56;;;;;;;9.00;8.50;;;25.90;45.00;;;;;;4989941;28;20800;-55
2022/05/08 12:30:21;;;;;;;8.80;8.30;;;26.50;45.20;;;;;;4991396;28;20455;-55
2022/05/08 12:32:47;;;;;;;9.00;8.40;;;27.60;42.80;;;;;;4989281;28;20498;-56
2022/05/08 12:35:13;;;;;;;9.50;8.80;;;28.80;40.00;;;;;;4990044;28;20647;-57
2022/05/08 12:37:39;;;;;;;8.87;8.37;;;30.00;36.10;;;;;;4989516;28;20305;-59
2022/05/08 12:40:06;;;;;;;9.63;8.93;;;30.20;36.30;;;;;;4990163;28;20194;-57
2022/05/08 12:42:32;;;;;;;9.20;8.60;;;29.70;35.30;;;;;;4990008;28;20498;-55
2022/05/08 12:44:58;;;;;;;9.27;8.77;;;28.90;36.20;;;;;;4990143;28;20519;-58
2022/05/08 12:47:23;;;;;;;9.70;9.10;;;28.20;37.80;;;;;;4989270;28;20494;-56
2022/05/08 12:49:49;;;;;;;10.27;9.67;;;27.40;38.90;;;;;;4990640;28;20208;-54
2022/05/08 12:52:15;;;;;;;10.43;9.73;;;26.60;40.20;;;;;;4988533;28;20187;-54
2022/05/08 12:54:41;;;;;;;10.03;9.33;;;26.20;41.70;;;;;;4989313;28;20180;-58
2022/05/08 12:57:10;;;;;;;9.90;9.20;;;25.60;42.90;;;;;;4989595;28;20438;-57
2022/05/08 12:59:49;;;;;;;10.10;9.40;;;25.30;45.10;;;;;;4989689;28;20646;-56
2022/05/08 13:02:18;;;;;;;10.33;9.63;;;25.10;45.60;;;;;;4989479;28;20434;-57
2022/05/08 13:04:46;;;;;;;11.63;10.93;;;25.30;45.70;;;;;;4988941;28;20437;-57
2022/05/08 13:07:12;;;;;;;11.17;10.20;;;25.90;45.00;;;;;;4989096;28;20956;-54
2022/05/08 13:09:38;;;;;;;10.30;9.70;;;26.20;43.90;;;;;;4986481;28;20512;-58